Time;durP1;ratioP1;P1;durP2;ratioP2;P2;SDS_P1;SDS_P2;PMS_P1;PMS_P2;Temp;Humidity;BMP_temperature;BMP_pressure;BME280_temperature;BME280_humidity;BME280_pressure;Samples;Min_cycle;Max_cycle;Signal;HPM_P1;HPM_P2
2023/03/04 00:01:23;;;;;;;61.63;32.28;;;;;;;1.04;89.05;101403.91;7398575;19;20102;-71
2023/03/04 00:03:52;;;;;;;65.57;32.65;;;;;;;1.03;89.01;101398.69;7397640;19;20141;-70
2023/03/04 00:06:20;;;;;;;63.72;32.10;;;;;;;0.99;89.30;101395.16;7397596;19;20078;-69
2023/03/04 00:08:49;;;;;;;66.75;31.75;;;;;;;0.97;89.25;101396.81;7397521;19;20454;-69
2023/03/04 00:11:17;;;;;;;59.22;30.30;;;;;;;0.92;89.07;101388.94;7397439;19;20018;-70
2023/03/04 00:13:46;;;;;;;57.67;30.42;;;;;;;0.90;89.13;101394.91;7399597;19;20428;-70
2023/03/04 00:16:17;;;;;;;63.50;32.00;;;;;;;0.71;89.18;101365.06;7399834;19;20019;-70
2023/03/04 00:18:52;;;;;;;60.10;29.55;;;;;;;0.85;89.32;101393.84;7396790;19;20082;-70
2023/03/04 00:21:20;;;;;;;56.10;28.83;;;;;;;0.80;89.70;101386.88;7397517;19;20022;-70
2023/03/04 00:23:49;;;;;;;55.33;29.08;;;;;;;0.77;89.17;101383.31;7398314;19;20090;-70
2023/03/04 00:26:18;;;;;;;54.78;30.75;;;;;;;0.77;89.49;101389.38;7405287;19;20027;-67
2023/03/04 00:28:46;;;;;;;51.83;26.73;;;;;;;0.72;89.23;101393.53;7403822;19;20019;-72
2023/03/04 00:31:18;;;;;;;53.30;25.65;;;;;;;0.72;89.33;101387.47;7400738;19;20424;-71
2023/03/04 00:33:46;;;;;;;55.80;27.42;;;;;;;0.70;89.53;101371.94;7397964;19;20022;-71
2023/03/04 00:36:14;;;;;;;51.38;26.88;;;;;;;0.67;89.55;101371.88;7397610;19;20022;-70
2023/03/04 00:38:43;;;;;;;51.10;27.50;;;;;;;0.69;89.83;101369.31;7397374;19;20090;-71
2023/03/04 00:41:11;;;;;;;54.10;27.85;;;;;;;0.66;89.63;101372.69;7397616;19;20006;-70
2023/03/04 00:43:40;;;;;;;48.60;25.80;;;;;;;0.64;89.78;101371.75;7398594;19;20023;-71
2023/03/04 00:46:08;;;;;;;44.70;24.83;;;;;;;0.64;90.17;101377.81;7399603;19;20027;-70
2023/03/04 00:48:40;;;;;;;46.55;26.08;;;;;;;0.64;89.99;101374.34;7399493;19;20022;-70
2023/03/04 00:51:08;;;;;;;44.67;24.88;;;;;;;0.63;90.29;101364.84;7397158;19;20363;-70
2023/03/04 00:53:37;;;;;;;42.13;24.20;;;;;;;0.64;90.34;101371.75;7398164;19;20455;-70
2023/03/04 00:56:06;;;;;;;43.72;24.63;;;;;;;0.65;90.14;101371.78;7396459;19;20503;-69
2023/03/04 00:58:34;;;;;;;43.75;25.15;;;;;;;0.68;90.44;101362.41;7397298;19;20010;-68
2023/03/04 01:01:03;;;;;;;42.63;22.73;;;;;;;0.69;90.46;101362.44;7396985;19;20018;-69
2023/03/04 01:03:32;;;;;;;46.15;23.13;;;;;;;0.72;90.28;101362.53;7398565;19;20022;-68
2023/03/04 01:06:03;;;;;;;41.00;22.90;;;;;;;0.75;90.53;101357.44;7396467;19;20015;-69
2023/03/04 01:08:31;;;;;;;39.15;22.30;;;;;;;0.77;90.30;101358.38;7393805;19;20485;-69
2023/03/04 01:11:00;;;;;;;40.08;20.77;;;;;;;0.79;89.99;101354.09;7396554;19;20031;-69
2023/03/04 01:13:28;;;;;;;37.90;20.38;;;;;;;0.81;90.28;101329.22;7396488;19;20019;-68
2023/03/04 01:15:57;;;;;;;36.13;21.17;;;;;;;0.85;89.98;101332.75;7397220;19;20022;-69
2023/03/04 01:18:26;;;;;;;36.75;20.77;;;;;;;0.89;89.99;101338.88;7396192;19;20006;-68
2023/03/04 01:20:54;;;;;;;34.30;20.00;;;;;;;0.91;89.70;101337.19;7396415;19;20023;-69
2023/03/04 01:23:26;;;;;;;34.33;20.35;;;;;;;0.91;89.75;101327.75;7396528;19;20026;-68
2023/03/04 01:25:54;;;;;;;35.97;20.48;;;;;;;0.95;89.75;101319.25;7396847;19;20023;-68
2023/03/04 01:28:29;;;;;;;36.20;19.20;;;;;;;0.94;89.44;101314.03;7396149;19;20027;-67
2023/03/04 01:30:58;;;;;;;35.72;18.35;;;;;;;1.01;89.29;101307.31;7396626;19;20094;-69
2023/03/04 01:33:26;;;;;;;27.95;16.02;;;;;;;1.05;89.24;101328.13;7396357;19;20023;-69
2023/03/04 01:35:55;;;;;;;35.97;17.70;;;;;;;1.08;89.23;101315.28;7396052;19;20015;-69
2023/03/04 01:38:26;;;;;;;33.13;17.23;;;;;;;1.11;89.04;101314.47;7396715;19;20018;-69
2023/03/04 01:40:55;;;;;;;33.20;17.35;;;;;;;1.13;89.15;101298.19;7397125;19;20019;-69
2023/03/04 01:43:26;;;;;;;28.80;16.95;;;;;;;1.18;88.96;101307.78;7396163;19;20424;-69
2023/03/04 01:45:56;;;;;;;36.58;18.38;;;;;;;1.21;88.60;101302.69;7396960;19;20019;-69
2023/03/04 01:48:30;;;;;;;29.52;15.30;;;;;;;1.24;88.36;101300.16;7396753;19;20078;-68
2023/03/04 01:51:01;;;;;;;32.73;16.20;;;;;;;1.25;88.04;101307.09;7397123;19;20017;-68
2023/03/04 01:53:34;;;;;;;30.77;15.25;;;;;;;1.28;88.43;101299.41;7396605;19;20026;-68
2023/03/04 01:56:12;;;;;;;31.38;14.90;;;;;;;1.29;87.63;101299.44;7396791;19;20027;-69
2023/03/04 01:58:40;;;;;;;32.55;14.70;;;;;;;1.32;88.15;101303.81;7396043;19;20067;-69
2023/03/04 02:01:10;;;;;;;31.67;15.02;;;;;;;1.35;88.43;101303.03;7395996;19;20022;-69
2023/03/04 02:03:39;;;;;;;28.17;13.63;;;;;;;1.37;87.51;101307.41;7398002;19;20478;-69
2023/03/04 02:06:08;;;;;;;34.78;13.50;;;;;;;1.34;87.10;101291.81;7397392;19;20019;-69
2023/03/04 02:08:39;;;;;;;28.85;13.73;;;;;;;1.39;87.50;101291.91;7398517;19;20424;-69
2023/03/04 02:11:07;;;;;;;23.08;10.85;;;;;;;1.38;86.82;101303.97;7397038;19;20022;-69
2023/03/04 02:13:36;;;;;;;27.70;11.63;;;;;;;1.39;86.39;101303.16;7390040;19;20098;-68
2023/03/04 02:16:04;;;;;;;30.13;12.15;;;;;;;1.42;87.57;101299.75;7396229;19;20018;-70
2023/03/04 02:18:33;;;;;;;28.83;11.40;;;;;;;1.44;87.03;101292.91;7394987;19;20503;-70
2023/03/04 02:21:11;;;;;;;26.50;10.48;;;;;;;1.44;86.69;101283.44;7395091;19;20031;-69
2023/03/04 02:23:48;;;;;;;33.10;10.88;;;;;;;1.46;86.03;101296.41;7394661;19;20035;-70
2023/03/04 02:26:22;;;;;;;24.08;9.93;;;;;;;1.48;86.42;101288.69;7396067;19;20388;-70
2023/03/04 02:28:52;;;;;;;26.88;10.38;;;;;;;1.50;86.70;101287.03;7396085;19;20027;-70
2023/03/04 02:31:26;;;;;;;30.27;10.38;;;;;;;1.52;86.56;101280.19;7395588;19;20514;-69
2023/03/04 02:33:57;;;;;;;25.40;10.20;;;;;;;1.54;87.20;101279.38;7394506;19;20477;-69
2023/03/04 02:36:27;;;;;;;26.23;8.73;;;;;;;1.55;86.46;101285.41;7395761;19;20433;-69
2023/03/04 02:38:56;;;;;;;24.58;9.38;;;;;;;1.56;86.61;101274.25;7394619;19;20037;-69
2023/03/04 02:41:30;;;;;;;26.33;9.00;;;;;;;1.56;86.67;101261.31;7395203;19;20419;-69
2023/03/04 02:43:59;;;;;;;23.77;9.50;;;;;;;1.58;86.07;101269.97;7394739;19;20035;-68
2023/03/04 02:46:27;;;;;;;25.13;8.90;;;;;;;1.60;86.32;101263.13;7393416;19;20499;-68
2023/03/04 02:48:56;;;;;;;24.52;9.40;;;;;;;1.63;86.53;101263.19;7395433;19;20034;-71
2023/03/04 02:51:24;;;;;;;24.67;8.43;;;;;;;1.62;86.13;101262.31;7395326;19;20011;-70
2023/03/04 02:53:53;;;;;;;27.98;10.07;;;;;;;1.66;86.57;101268.44;7393869;19;20015;-67
2023/03/04 02:56:21;;;;;;;22.92;8.18;;;;;;;1.68;86.80;101263.28;7394836;19;20034;-67
2023/03/04 02:58:52;;;;;;;23.45;9.52;;;;;;;1.70;86.95;101254.72;7394196;19;20027;-67
2023/03/04 03:01:21;;;;;;;22.90;8.02;;;;;;;1.72;86.93;101249.59;7394692;19;20482;-67
2023/03/04 03:03:49;;;;;;;26.67;9.27;;;;;;;1.72;86.72;101247.00;7393877;19;20018;-67
2023/03/04 03:06:18;;;;;;;25.48;8.35;;;;;;;1.75;86.91;101252.25;7392744;19;20432;-67
2023/03/04 03:08:46;;;;;;;21.25;8.23;;;;;;;1.75;86.54;101249.66;7394419;19;20478;-67
2023/03/04 03:11:15;;;;;;;20.63;8.25;;;;;;;1.76;86.78;101251.41;7394800;19;20015;-67
2023/03/04 03:13:43;;;;;;;20.48;8.45;;;;;;;1.77;87.08;101250.59;7393061;19;20014;-67
2023/03/04 03:16:14;;;;;;;20.77;8.20;;;;;;;1.78;86.81;101242.84;7394348;19;20543;-68
2023/03/04 03:18:43;;;;;;;23.38;7.57;;;;;;;1.79;86.72;101243.72;7392965;19;20015;-68
2023/03/04 03:21:11;;;;;;;23.70;7.43;;;;;;;1.79;86.49;101244.59;7394546;19;20022;-68
2023/03/04 03:23:40;;;;;;;22.17;7.45;;;;;;;1.81;86.96;101236.88;7393059;19;20069;-68
2023/03/04 03:26:08;;;;;;;23.17;7.85;;;;;;;1.82;86.84;101235.16;7395004;19;20018;-68
2023/03/04 03:28:37;;;;;;;28.33;7.55;;;;;;;1.83;86.64;101234.31;7392086;19;20511;-68
2023/03/04 03:31:06;;;;;;;18.15;7.22;;;;;;;1.83;86.43;101236.91;7394174;19;20022;-68
2023/03/04 03:33:37;;;;;;;20.38;6.53;;;;;;;1.86;87.00;101234.38;7399842;19;20022;-68
2023/03/04 03:36:06;;;;;;;25.35;7.03;;;;;;;1.87;86.99;101228.34;7401803;19;20022;-68
2023/03/04 03:38:35;;;;;;;19.70;7.20;;;;;;;1.89;86.62;101226.69;7398438;19;20019;-68
2023/03/04 03:41:04;;;;;;;19.85;7.10;;;;;;;1.91;86.62;101228.47;7401444;19;20027;-68
2023/03/04 03:43:32;;;;;;;23.25;6.55;;;;;;;1.92;86.96;101217.28;7398276;19;20432;-68
2023/03/04 03:46:01;;;;;;;23.42;7.35;;;;;;;1.94;86.78;101217.31;7401075;19;20518;-68
2023/03/04 03:48:29;;;;;;;21.05;6.05;;;;;;;1.95;87.41;101209.56;7401339;19;20036;-67
2023/03/04 03:51:00;;;;;;;24.33;7.18;;;;;;;1.96;86.74;101215.63;7401196;19;20015;-67
2023/03/04 03:53:29;;;;;;;19.67;6.07;;;;;;;1.97;87.02;101219.09;7398733;19;20039;-68
2023/03/04 03:55:57;;;;;;;28.55;6.38;;;;;;;2.00;87.25;101214.84;7400516;19;20420;-68
2023/03/04 03:58:26;;;;;;;24.30;5.40;;;;;;;2.03;87.25;101211.47;7400336;19;20018;-68
2023/03/04 04:00:54;;;;;;;19.15;6.10;;;;;;;2.05;87.10;101202.00;7400827;19;20014;-68
2023/03/04 04:03:23;;;;;;;27.65;5.78;;;;;;;2.07;87.29;101197.72;7399744;19;20018;-67
2023/03/04 04:05:52;;;;;;;21.80;5.03;;;;;;;2.09;87.46;101196.91;7400322;19;20018;-68
2023/03/04 04:08:23;;;;;;;26.25;5.82;;;;;;;2.10;87.09;101196.06;7400593;19;20032;-68
2023/03/04 04:10:51;;;;;;;15.38;4.50;;;;;;;2.15;87.59;101201.34;7400140;19;20486;-68
2023/03/04 04:13:20;;;;;;;20.25;4.93;;;;;;;2.17;87.54;101194.47;7398673;19;20035;-68
2023/03/04 04:15:48;;;;;;;22.23;4.38;;;;;;;2.19;87.34;101190.22;7400661;19;20015;-67
2023/03/04 04:18:17;;;;;;;19.33;5.13;;;;;;;2.20;87.15;101185.91;7397216;19;20415;-67
2023/03/04 04:20:45;;;;;;;16.92;4.30;;;;;;;2.21;87.53;101182.47;7399729;19;20014;-67
2023/03/04 04:23:14;;;;;;;15.23;4.32;;;;;;;2.25;87.42;101190.34;7399326;19;20022;-68
2023/03/04 04:25:45;;;;;;;21.77;4.93;;;;;;;2.27;87.49;101185.19;7399946;19;20031;-68
2023/03/04 04:28:13;;;;;;;15.48;4.22;;;;;;;2.29;87.49;101180.91;7399564;19;20014;-68
2023/03/04 04:30:42;;;;;;;19.13;5.30;;;;;;;2.30;87.68;101190.44;7399876;19;20057;-67
2023/03/04 04:33:11;;;;;;;15.75;4.82;;;;;;;2.31;87.85;101192.16;7399153;19;20022;-68
2023/03/04 04:35:40;;;;;;;20.05;4.03;;;;;;;2.33;87.94;101187.88;7399634;19;20027;-67
2023/03/04 04:38:09;;;;;;;20.15;4.05;;;;;;;2.33;87.44;101189.63;7399622;19;20023;-68
2023/03/04 04:40:38;;;;;;;17.60;4.22;;;;;;;2.30;87.62;101180.09;7396452;19;20031;-68
2023/03/04 04:43:09;;;;;;;21.77;4.68;;;;;;;2.34;87.96;101181.88;7396678;19;20022;-68
2023/03/04 04:45:37;;;;;;;24.40;4.53;;;;;;;2.35;88.11;101173.28;7398989;19;20022;-67
2023/03/04 04:48:07;;;;;;;18.02;4.75;;;;;;;2.35;87.95;101172.38;7398931;19;20015;-68
2023/03/04 04:50:41;;;;;;;14.93;4.32;;;;;;;2.35;88.13;101178.44;7398757;19;20025;-67
2023/03/04 04:53:10;;;;;;;18.23;4.07;;;;;;;2.36;88.33;101168.94;7396385;19;20031;-68
2023/03/04 04:55:38;;;;;;;20.35;4.97;;;;;;;2.36;88.20;101169.81;7398592;19;20495;-68
2023/03/04 04:58:10;;;;;;;13.82;3.63;;;;;;;2.37;88.61;101168.13;7398920;19;20085;-68
2023/03/04 05:00:38;;;;;;;14.93;4.00;;;;;;;2.38;88.54;101170.72;7396345;19;20027;-67
2023/03/04 05:03:06;;;;;;;26.55;5.05;;;;;;;2.39;88.51;101169.00;7398071;19;20026;-68
2023/03/04 05:05:35;;;;;;;23.30;4.93;;;;;;;2.38;88.85;101156.91;7398725;19;20039;-68
2023/03/04 05:08:03;;;;;;;13.82;4.82;;;;;;;2.40;88.94;101160.38;7398652;19;20035;-67
2023/03/04 05:10:32;;;;;;;19.52;3.92;;;;;;;2.39;89.19;101159.53;7398512;19;20035;-67
2023/03/04 05:13:00;;;;;;;15.77;4.22;;;;;;;2.38;89.00;101155.19;7397274;19;20490;-68
2023/03/04 05:15:31;;;;;;;15.65;4.75;;;;;;;2.39;89.17;101149.16;7399217;19;20031;-68
2023/03/04 05:18:00;;;;;;;19.05;4.85;;;;;;;2.40;89.40;101156.09;7397864;19;20032;-68
2023/03/04 05:20:28;;;;;;;19.55;4.80;;;;;;;2.41;89.50;101157.84;7396090;19;20039;-68
2023/03/04 05:22:57;;;;;;;14.02;4.40;;;;;;;2.42;89.41;101161.31;7397574;19;20035;-68
2023/03/04 05:25:25;;;;;;;15.50;4.80;;;;;;;2.42;89.52;101148.34;7397891;19;20019;-68
2023/03/04 05:27:55;;;;;;;18.67;3.92;;;;;;;2.41;89.87;101157.84;7395500;19;20494;-68
2023/03/04 05:30:23;;;;;;;19.20;4.72;;;;;;;2.43;89.57;101147.50;7395846;19;20026;-68
2023/03/04 05:32:54;;;;;;;19.15;3.95;;;;;;;2.43;89.66;101150.97;7395258;19;20030;-68
2023/03/04 05:35:23;;;;;;;15.38;4.03;;;;;;;2.44;89.90;101141.50;7395294;19;20515;-68
2023/03/04 05:37:51;;;;;;;19.02;4.07;;;;;;;2.46;89.92;101151.88;7397284;19;20018;-68
2023/03/04 05:40:21;;;;;;;17.48;4.00;;;;;;;2.47;89.73;101149.31;7395948;19;20015;-68
2023/03/04 05:42:49;;;;;;;12.00;3.47;;;;;;;2.49;89.69;101154.50;7396809;19;20019;-68
2023/03/04 05:45:18;;;;;;;13.55;3.95;;;;;;;2.50;89.71;101146.75;7397247;19;20026;-68
2023/03/04 05:47:46;;;;;;;12.20;3.90;;;;;;;2.52;89.77;101146.81;7396861;19;20491;-68
2023/03/04 05:50:25;;;;;;;9.88;3.42;;;;;;;2.52;89.62;101152.00;7394747;19;20019;-68
2023/03/04 05:52:54;;;;;;;12.68;3.90;;;;;;;2.54;89.79;101143.41;7394819;19;20078;-68
2023/03/04 05:55:22;;;;;;;12.32;3.88;;;;;;;2.51;89.78;101139.88;7396648;19;20014;-68
2023/03/04 05:57:51;;;;;;;16.73;3.60;;;;;;;2.55;89.70;101150.31;7396825;19;20035;-68
2023/03/04 06:00:20;;;;;;;17.17;3.22;;;;;;;2.56;89.74;101146.88;7394375;19;20503;-68
2023/03/04 06:02:48;;;;;;;14.73;4.20;;;;;;;2.57;90.09;101142.56;7396305;19;20035;-68
2023/03/04 06:05:17;;;;;;;13.35;3.50;;;;;;;2.61;89.83;101146.97;7396751;19;20027;-68
2023/03/04 06:07:48;;;;;;;10.15;3.80;;;;;;;2.61;90.20;101152.13;7396260;19;20023;-68
2023/03/04 06:10:19;;;;;;;15.00;3.58;;;;;;;2.63;90.33;101153.06;7396871;19;20022;-68
2023/03/04 06:12:47;;;;;;;14.77;3.60;;;;;;;2.64;90.14;101157.38;7395796;19;20368;-68
2023/03/04 06:15:16;;;;;;;16.00;3.45;;;;;;;2.64;90.30;101144.44;7394736;19;20027;-67
2023/03/04 06:17:44;;;;;;;18.20;3.75;;;;;;;2.66;90.43;101147.91;7395997;19;20022;-68
2023/03/04 06:20:14;;;;;;;15.80;3.92;;;;;;;2.67;90.53;101146.22;7394660;19;20035;-68
2023/03/04 06:22:43;;;;;;;13.40;4.75;;;;;;;2.68;90.40;101140.16;7395439;19;20086;-68
2023/03/04 06:25:14;;;;;;;13.05;4.00;;;;;;;2.69;90.64;101150.56;7395730;19;20035;-68
2023/03/04 06:27:42;;;;;;;12.10;3.83;;;;;;;2.71;90.46;101159.22;7396285;19;20428;-67
2023/03/04 06:30:12;;;;;;;13.48;3.38;;;;;;;2.72;90.49;101142.84;7395870;19;20026;-67
2023/03/04 06:32:43;;;;;;;19.73;4.05;;;;;;;2.73;90.53;101139.41;7395581;19;20035;-67
2023/03/04 06:35:12;;;;;;;14.57;3.50;;;;;;;2.74;90.74;101138.56;7395974;19;20025;-66
2023/03/04 06:37:40;;;;;;;12.63;3.22;;;;;;;2.77;90.88;101150.69;7395327;19;20400;-67
2023/03/04 06:40:10;;;;;;;14.55;3.88;;;;;;;2.77;90.81;101148.97;7393372;19;20389;-66
2023/03/04 06:42:42;;;;;;;17.25;3.80;;;;;;;2.80;91.02;101145.53;7395261;19;20022;-68
2023/03/04 06:45:12;;;;;;;17.70;3.92;;;;;;;2.80;91.02;101148.13;7395737;19;20010;-67
2023/03/04 06:47:40;;;;;;;13.32;3.08;;;;;;;2.82;91.31;101153.34;7393532;19;20036;-67
2023/03/04 06:50:10;;;;;;;18.23;3.40;;;;;;;2.82;91.38;101148.16;7395867;19;20014;-67
2023/03/04 06:52:39;;;;;;;9.50;2.97;;;;;;;2.83;91.55;101150.81;7395568;19;20027;-68
2023/03/04 06:55:11;;;;;;;10.00;3.17;;;;;;;2.86;91.69;101152.56;7395110;19;20035;-67
2023/03/04 06:57:49;;;;;;;17.42;3.70;;;;;;;2.85;92.13;101149.09;7394749;19;20499;-67
2023/03/04 07:00:19;;;;;;;10.18;3.25;;;;;;;2.86;91.98;101149.97;7394116;19;20016;-67
2023/03/04 07:02:48;;;;;;;10.70;3.70;;;;;;;2.87;91.95;101152.59;7394597;19;20010;-68
2023/03/04 07:05:16;;;;;;;8.70;2.58;;;;;;;2.88;92.43;101149.16;7394846;19;20018;-67
2023/03/04 07:07:45;;;;;;;13.45;3.28;;;;;;;2.86;92.92;101157.75;7399441;19;20078;-67
2023/03/04 07:10:13;;;;;;;17.75;3.63;;;;;;;2.88;93.31;101163.81;7402404;19;20023;-67
2023/03/04 07:12:44;;;;;;;16.40;3.28;;;;;;;2.86;93.72;101156.03;7402002;19;20033;-67
2023/03/04 07:15:13;;;;;;;10.27;3.40;;;;;;;2.87;93.60;101159.47;7400126;19;20014;-67
2023/03/04 07:17:42;;;;;;;13.95;3.90;;;;;;;2.88;93.88;101150.84;7402111;19;20416;-67
2023/03/04 07:20:12;;;;;;;16.67;3.50;;;;;;;2.88;94.60;101156.03;7401426;19;20029;-68
2023/03/04 07:22:40;;;;;;;9.98;3.10;;;;;;;2.89;94.31;101153.50;7401658;19;20014;-68
2023/03/04 07:25:10;;;;;;;11.63;3.47;;;;;;;2.91;94.34;101154.38;7401495;19;20080;-67
2023/03/04 07:27:39;;;;;;;12.10;3.67;;;;;;;2.91;95.16;101151.78;7401431;19;20019;-68
2023/03/04 07:30:12;;;;;;;19.27;4.47;;;;;;;2.93;94.66;101150.09;7401356;19;20017;-68
2023/03/04 07:32:41;;;;;;;13.15;3.95;;;;;;;2.95;94.83;101155.31;7401712;19;20031;-68
2023/03/04 07:35:10;;;;;;;20.45;3.50;;;;;;;2.96;94.92;101157.06;7400813;19;20015;-66
2023/03/04 07:37:39;;;;;;;14.40;3.85;;;;;;;2.97;95.36;101148.44;7400889;19;20389;-67
2023/03/04 07:40:09;;;;;;;10.63;3.38;;;;;;;2.99;95.11;101151.91;7400785;19;20023;-67
2023/03/04 07:42:38;;;;;;;7.40;2.80;;;;;;;2.99;95.89;101146.72;7401295;19;20014;-67
2023/03/04 07:45:08;;;;;;;9.82;3.53;;;;;;;3.01;96.19;101155.41;7401191;19;20018;-67
2023/03/04 07:47:40;;;;;;;9.80;3.40;;;;;;;3.00;96.15;101145.88;7398872;19;20513;-67
2023/03/04 07:50:09;;;;;;;12.45;3.40;;;;;;;3.01;96.48;101137.25;7401417;19;20042;-67
2023/03/04 07:52:39;;;;;;;17.92;3.40;;;;;;;3.03;96.88;101139.88;7398083;19;20035;-68
2023/03/04 07:55:09;;;;;;;11.93;3.40;;;;;;;3.02;97.42;101151.97;7398308;19;20022;-68
2023/03/04 07:57:40;;;;;;;13.93;3.95;;;;;;;3.02;97.33;101146.78;7400604;19;20028;-68
2023/03/04 08:00:11;;;;;;;11.63;3.83;;;;;;;3.02;97.56;101154.56;7399962;19;20019;-68
2023/03/04 08:02:42;;;;;;;7.05;3.38;;;;;;;3.00;97.92;101151.06;7400290;19;20517;-68
2023/03/04 08:05:11;;;;;;;14.57;3.95;;;;;;;3.00;98.32;101157.97;7400834;19;20090;-68
2023/03/04 08:07:40;;;;;;;12.90;4.55;;;;;;;3.00;99.11;101155.38;7400193;19;20031;-68
2023/03/04 08:10:09;;;;;;;11.85;4.03;;;;;;;2.98;99.40;101150.16;7400409;19;20022;-69
2023/03/04 08:12:38;;;;;;;25.80;9.38;;;;;;;2.99;99.10;101156.22;7400040;19;20035;-67
2023/03/04 08:15:08;;;;;;;21.38;6.40;;;;;;;2.98;99.74;101157.06;7397960;19;20010;-68
2023/03/04 08:17:37;;;;;;;14.23;6.32;;;;;;;2.98;100.00;101144.97;7395889;19;20373;-67
2023/03/04 08:20:09;;;;;;;15.52;5.43;;;;;;;3.00;100.00;101158.84;7399001;19;20035;-67
2023/03/04 08:22:38;;;;;;;15.85;4.40;;;;;;;3.01;100.00;101144.13;7401750;19;20022;-66
2023/03/04 08:25:07;;;;;;;22.25;9.07;;;;;;;3.02;100.00;101140.72;7402017;19;20026;-66
2023/03/04 08:27:36;;;;;;;15.18;7.65;;;;;;;3.04;100.00;101145.06;7401629;19;20018;-67
2023/03/04 08:30:05;;;;;;;16.60;6.85;;;;;;;3.05;100.00;101141.63;7402307;19;20092;-66
2023/03/04 08:32:33;;;;;;;11.90;5.53;;;;;;;3.05;100.00;101141.63;7401135;19;20028;-66
2023/03/04 08:35:01;;;;;;;18.88;8.43;;;;;;;3.08;99.95;101140.81;7402195;19;20373;-67
2023/03/04 08:37:34;;;;;;;12.02;4.80;;;;;;;3.12;100.00;101131.34;7402738;19;20035;-67
2023/03/04 08:40:02;;;;;;;12.40;5.60;;;;;;;3.14;100.00;101140.03;7402198;19;20018;-66
2023/03/04 08:42:31;;;;;;;16.20;4.20;;;;;;;3.15;100.00;101139.19;7399089;19;20031;-66
2023/03/04 08:44:59;;;;;;;12.07;4.03;;;;;;;3.13;100.00;101141.75;7402540;19;20022;-67
2023/03/04 08:47:28;;;;;;;14.82;4.70;;;;;;;3.16;100.00;101144.41;7401567;19;20006;-66
2023/03/04 08:49:57;;;;;;;12.45;5.00;;;;;;;3.15;100.00;101131.44;7401852;19;20022;-67
2023/03/04 08:52:25;;;;;;;13.75;7.13;;;;;;;3.17;100.00;101127.13;7399227;19;20379;-66
2023/03/04 08:54:56;;;;;;;8.63;3.97;;;;;;;3.18;100.00;101134.03;7398488;19;20369;-66
2023/03/04 08:57:25;;;;;;;10.90;4.50;;;;;;;3.20;100.00;101137.56;7401330;19;20018;-66
2023/03/04 08:59:54;;;;;;;9.32;3.95;;;;;;;3.21;100.00;101131.47;7401859;19;20031;-67
2023/03/04 09:02:22;;;;;;;13.20;3.25;;;;;;;3.23;100.00;101127.19;7398425;19;20035;-66
2023/03/04 09:04:51;;;;;;;8.90;2.88;;;;;;;3.24;100.00;101132.41;7398214;19;20032;-67
2023/03/04 09:07:19;;;;;;;15.70;6.05;;;;;;;3.28;100.00;101133.31;7400496;19;20010;-67
2023/03/04 09:09:48;;;;;;;6.85;3.50;;;;;;;3.33;100.00;101136.00;7400951;19;20035;-67
2023/03/04 09:12:19;;;;;;;9.95;3.58;;;;;;;3.37;100.00;101133.44;7397674;19;20377;-66
2023/03/04 09:14:47;;;;;;;7.72;3.80;;;;;;;3.41;100.00;101124.88;7397800;19;20424;-67
2023/03/04 09:17:16;;;;;;;14.15;4.32;;;;;;;3.46;100.00;101137.03;7400145;19;20373;-68
2023/03/04 09:19:44;;;;;;;12.18;3.67;;;;;;;3.50;100.00;101128.44;7397001;19;20032;-68
2023/03/04 09:22:13;;;;;;;11.10;3.20;;;;;;;3.54;98.79;101127.66;7397795;19;20022;-67
2023/03/04 09:24:41;;;;;;;12.10;3.45;;;;;;;3.58;98.36;101132.03;7396729;19;20031;-68
2023/03/04 09:27:11;;;;;;;11.45;4.68;;;;;;;3.62;98.31;101128.59;7396057;19;20014;-68
2023/03/04 09:29:43;;;;;;;9.18;3.22;;;;;;;3.66;97.00;101124.34;7396220;19;20482;-67
2023/03/04 09:32:11;;;;;;;9.55;3.35;;;;;;;3.71;96.74;101133.91;7398624;19;20489;-67
2023/03/04 09:34:40;;;;;;;8.70;3.72;;;;;;;3.78;97.23;101129.69;7396852;19;20086;-67
2023/03/04 09:37:08;;;;;;;8.57;3.60;;;;;;;3.84;95.28;101126.28;7398038;19;20035;-67
2023/03/04 09:39:37;;;;;;;11.07;3.83;;;;;;;3.91;95.14;101130.69;7401139;19;20031;-67
2023/03/04 09:42:08;;;;;;;7.97;3.70;;;;;;;3.96;94.90;101123.84;7397484;19;20014;-67
2023/03/04 09:44:39;;;;;;;10.77;2.75;;;;;;;4.04;93.50;101110.94;7398264;19;20018;-67
2023/03/04 09:47:15;;;;;;;6.70;3.30;;;;;;;4.10;92.94;101118.78;7399313;19;20028;-66
2023/03/04 09:49:47;;;;;;;7.10;2.60;;;;;;;4.16;91.21;101113.66;7400568;19;20032;-66
2023/03/04 09:52:26;;;;;;;4.38;2.30;;;;;;;4.22;87.99;101128.44;7397312;19;20486;-67
2023/03/04 09:55:06;;;;;;;4.78;2.08;;;;;;;4.29;88.63;101100.81;7397399;19;20352;-67
2023/03/04 09:57:48;;;;;;;5.55;2.00;;;;;;;4.35;86.97;101121.66;7398876;19;20011;-67
2023/03/04 10:00:20;;;;;;;7.90;2.60;;;;;;;4.42;88.52;101101.78;7400738;19;20027;-67
2023/03/04 10:03:13;;;;;;;5.10;2.10;;;;;;;4.52;88.41;101091.47;7398227;19;20039;-68
2023/03/04 10:05:47;;;;;;;9.93;2.17;;;;;;;4.62;89.31;101104.56;7399912;19;20368;-67
2023/03/04 10:08:45;;;;;;;4.05;2.15;;;;;;;4.68;86.42;101109.84;7398619;19;20022;-66
2023/03/04 10:11:18;;;;;;;9.95;3.05;;;;;;;4.73;87.45;101116.78;7397669;19;20018;-66
2023/03/04 10:13:57;;;;;;;3.75;2.33;;;;;;;4.78;86.19;101096.03;7398672;19;20035;-67
2023/03/04 10:16:31;;;;;;;6.78;2.72;;;;;;;4.80;86.07;101099.53;7398321;19;20023;-67
2023/03/04 10:19:23;;;;;;;9.48;2.40;;;;;;;4.85;86.24;101102.16;7400280;19;20030;-67
2023/03/04 10:21:53;;;;;;;9.63;3.55;;;;;;;4.94;86.86;101106.56;7394588;19;20027;-65
2023/03/04 10:24:26;;;;;;;9.30;3.20;;;;;;;5.01;85.29;101117.00;7394515;19;20018;-67
2023/03/04 10:27:00;;;;;;;5.83;2.90;;;;;;;5.02;85.00;101110.94;7394891;19;20019;-66
2023/03/04 10:29:32;;;;;;;8.68;2.92;;;;;;;4.98;84.80;101098.78;7395903;19;20018;-66
2023/03/04 10:32:01;;;;;;;6.25;2.40;;;;;;;4.96;86.37;101108.31;7396034;19;20026;-64
2023/03/04 10:34:32;;;;;;;8.50;2.88;;;;;;;4.93;86.51;101095.28;7393216;19;20018;-66
2023/03/04 10:37:04;;;;;;;3.97;2.75;;;;;;;4.92;86.44;101106.56;7395735;19;20022;-67
2023/03/04 10:39:34;;;;;;;7.28;2.70;;;;;;;4.87;85.42;101105.66;7393236;19;20485;-67
2023/03/04 10:42:05;;;;;;;8.00;2.50;;;;;;;4.81;85.16;101090.84;7393741;19;20078;-67
2023/03/04 10:44:37;;;;;;;5.22;2.80;;;;;;;4.80;83.97;101119.44;7393376;19;20482;-67
2023/03/04 10:47:13;;;;;;;8.40;2.95;;;;;;;4.81;83.61;101095.19;7395314;19;20018;-68
2023/03/04 10:49:55;;;;;;;9.68;3.25;;;;;;;4.81;82.97;101090.84;7394748;19;20011;-67
2023/03/04 10:52:30;;;;;;;8.30;3.00;;;;;;;4.83;84.00;101104.75;7394942;19;20043;-66
2023/03/04 10:55:02;;;;;;;8.73;3.10;;;;;;;4.85;84.27;101104.75;7395020;19;20014;-66
2023/03/04 10:57:37;;;;;;;4.95;2.90;;;;;;;4.91;85.34;101097.00;7395128;19;20025;-66
2023/03/04 11:00:25;;;;;;;11.38;3.20;;;;;;;4.96;85.38;101103.09;7395171;19;20026;-67
2023/03/04 11:02:54;;;;;;;5.60;2.47;;;;;;;4.99;85.80;101105.75;7393355;19;20044;-67
2023/03/04 11:05:27;;;;;;;7.45;2.40;;;;;;;5.01;85.50;101106.59;7394480;19;20022;-67
2023/03/04 11:07:57;;;;;;;8.65;2.38;;;;;;;5.03;84.36;101102.28;7394803;19;20027;-67
2023/03/04 11:10:30;;;;;;;6.68;2.28;;;;;;;5.05;85.35;101100.59;7398125;19;20023;-67
2023/03/04 11:13:02;;;;;;;8.20;3.72;;;;;;;5.05;84.69;101108.38;7396783;19;20035;-67
2023/03/04 11:15:32;;;;;;;11.27;2.90;;;;;;;5.05;84.31;101092.78;7394417;19;20007;-67
2023/03/04 11:18:04;;;;;;;12.40;4.47;;;;;;;5.04;84.31;101103.16;7395436;19;20082;-67
2023/03/04 11:20:38;;;;;;;7.25;3.15;;;;;;;5.01;83.94;101091.00;7395309;19;20018;-67
2023/03/04 11:23:12;;;;;;;10.52;2.72;;;;;;;4.98;83.42;101093.59;7394807;19;20038;-67
2023/03/04 11:25:45;;;;;;;12.10;4.13;;;;;;;4.94;82.59;101103.94;7395082;19;20022;-68
2023/03/04 11:28:21;;;;;;;13.90;4.47;;;;;;;4.92;82.24;101098.75;7397149;19;20023;-66
2023/03/04 11:30:53;;;;;;;13.18;3.72;;;;;;;4.90;83.72;101092.66;7394745;19;20027;-67
2023/03/04 11:33:29;;;;;;;14.07;3.28;;;;;;;4.85;81.65;101086.56;7394759;19;20019;-67
2023/03/04 11:36:14;;;;;;;14.65;3.55;;;;;;;4.84;81.52;101101.28;7395825;19;20015;-66
2023/03/04 11:38:48;;;;;;;14.63;3.50;;;;;;;4.83;82.04;101102.16;7393804;19;20019;-67